createdAt,value
2023-02-28T00:01:38.465Z,85.58
2023-02-28T00:04:05.617Z,85.69
2023-02-28T00:06:33.835Z,85.85
2023-02-28T00:09:01.189Z,85.98
2023-02-28T00:11:28.975Z,85.97
2023-02-28T00:13:56.242Z,86.09
2023-02-28T00:16:23.980Z,85.93
2023-02-28T00:18:52.650Z,84.87
2023-02-28T00:21:21.136Z,83.45
2023-02-28T00:23:48.777Z,83.10
2023-02-28T00:26:20.015Z,83.47
2023-02-28T00:28:49.741Z,83.89
2023-02-28T00:31:24.459Z,84.33
2023-02-28T00:33:53.073Z,84.87
2023-02-28T00:36:33.700Z,84.97
2023-02-28T00:39:02.152Z,84.85
2023-02-28T00:41:29.820Z,84.87
2023-02-28T00:43:57.436Z,84.77
2023-02-28T00:46:25.076Z,83.99
2023-02-28T00:48:52.472Z,82.65
2023-02-28T00:51:20.865Z,82.35
2023-02-28T00:53:48.417Z,82.81
2023-02-28T00:56:15.754Z,83.90
2023-02-28T00:58:43.526Z,84.92
2023-02-28T01:01:10.781Z,85.56
2023-02-28T01:03:38.015Z,86.26
2023-02-28T01:06:05.664Z,87.22
2023-02-28T01:08:33.213Z,88.78
2023-02-28T01:11:12.114Z,90.22
2023-02-28T01:13:41.885Z,91.67
2023-02-28T01:16:10.508Z,93.01
2023-02-28T01:18:38.858Z,94.10
2023-02-28T01:21:07.433Z,94.90
2023-02-28T01:23:36.145Z,95.42
2023-02-28T01:26:21.984Z,96.11
2023-02-28T01:28:50.800Z,96.81
2023-02-28T01:31:21.647Z,96.41
2023-02-28T01:33:50.047Z,95.36
2023-02-28T01:36:26.798Z,95.95
2023-02-28T01:38:54.296Z,96.34
2023-02-28T01:41:33.319Z,95.03
2023-02-28T01:44:26.403Z,94.60
2023-02-28T01:46:53.720Z,94.79
2023-02-28T01:49:21.237Z,95.97
2023-02-28T01:51:55.898Z,97.61
2023-02-28T01:54:30.831Z,96.97
2023-02-28T01:57:14.539Z,96.70
2023-02-28T02:02:58.058Z,96.95
2023-02-28T02:05:29.796Z,97.33
2023-02-28T02:08:03.993Z,96.46
2023-02-28T02:10:56.608Z,95.17
2023-02-28T02:14:01.709Z,94.88
2023-02-28T02:16:57.593Z,94.71
2023-02-28T02:20:28.815Z,94.41
2023-02-28T02:23:23.145Z,94.17
2023-02-28T02:25:58.006Z,95.07
2023-02-28T02:28:51.262Z,96.23
2023-02-28T02:31:55.239Z,97.53
2023-02-28T02:34:27.794Z,98.84
2023-02-28T02:37:07.089Z,99.83
2023-02-28T02:40:00.098Z,100.00
2023-02-28T02:42:59.180Z,100.00
2023-02-28T02:45:37.096Z,100.00
2023-02-28T02:48:10.499Z,100.00
2023-02-28T02:50:55.527Z,100.00
2023-02-28T02:53:28.474Z,100.00
2023-02-28T02:55:57.397Z,100.00
2023-02-28T02:58:29.278Z,100.00
2023-02-28T03:01:01.469Z,100.00
2023-02-28T03:03:31.182Z,100.00
2023-02-28T03:06:02.853Z,100.00
2023-02-28T03:08:37.497Z,100.00
2023-02-28T03:11:13.617Z,100.00
2023-02-28T03:14:04.624Z,100.00
2023-02-28T03:17:02.927Z,100.00
2023-02-28T03:19:50.183Z,100.00
2023-02-28T03:22:41.331Z,100.00
2023-02-28T03:25:46.951Z,100.00
2023-02-28T03:28:43.809Z,100.00
2023-02-28T03:31:18.242Z,100.00
2023-02-28T03:33:59.062Z,100.00
2023-02-28T03:36:33.835Z,100.00
2023-02-28T03:39:06.864Z,100.00
2023-02-28T03:41:43.334Z,100.00
2023-02-28T03:44:16.985Z,100.00
2023-02-28T03:46:54.294Z,100.00
2023-02-28T03:49:30.076Z,100.00
2023-02-28T03:52:00.694Z,100.00
2023-02-28T03:54:37.646Z,100.00
2023-02-28T03:57:20.401Z,100.00
2023-02-28T04:00:15.679Z,100.00
2023-02-28T04:02:42.944Z,100.00
2023-02-28T04:05:10.551Z,100.00
2023-02-28T04:07:39.122Z,100.00
2023-02-28T04:10:06.901Z,100.00
2023-02-28T04:12:34.373Z,100.00
2023-02-28T04:15:01.804Z,100.00
2023-02-28T04:17:29.368Z,100.00
2023-02-28T04:19:58.793Z,100.00
2023-02-28T04:22:29.322Z,100.00
2023-02-28T04:24:56.801Z,100.00
2023-02-28T04:27:24.250Z,100.00
2023-02-28T04:29:51.667Z,100.00
2023-02-28T04:32:19.267Z,100.00
2023-02-28T04:34:46.633Z,100.00
2023-02-28T04:37:14.489Z,100.00
2023-02-28T04:39:43.133Z,100.00
2023-02-28T04:42:10.836Z,100.00
2023-02-28T04:44:37.986Z,100.00
2023-02-28T04:47:05.373Z,100.00
2023-02-28T04:49:33.799Z,100.00
2023-02-28T04:52:01.390Z,100.00
2023-02-28T04:54:29.655Z,100.00
2023-02-28T04:56:58.748Z,100.00
2023-02-28T04:59:26.316Z,100.00
2023-02-28T05:01:53.457Z,100.00
2023-02-28T05:04:21.750Z,100.00
2023-02-28T05:06:49.173Z,100.00
2023-02-28T05:09:16.629Z,100.00
2023-02-28T05:11:46.092Z,100.00
2023-02-28T05:14:15.543Z,100.00
2023-02-28T05:16:45.230Z,100.00
2023-02-28T05:19:13.770Z,100.00
2023-02-28T05:21:52.412Z,100.00
2023-02-28T05:24:26.115Z,100.00
2023-02-28T05:26:54.992Z,100.00
2023-02-28T05:29:23.387Z,100.00
2023-02-28T05:31:51.640Z,100.00
2023-02-28T05:34:18.880Z,100.00
2023-02-28T05:36:47.399Z,100.00
2023-02-28T05:39:21.021Z,100.00
2023-02-28T05:41:50.397Z,100.00
2023-02-28T05:44:17.873Z,100.00
2023-02-28T05:46:45.378Z,100.00
2023-02-28T05:49:12.886Z,100.00
2023-02-28T05:51:41.335Z,100.00
2023-02-28T05:54:09.126Z,100.00
2023-02-28T05:56:40.326Z,100.00
2023-02-28T05:59:11.689Z,100.00
2023-02-28T06:01:41.566Z,100.00
2023-02-28T06:04:19.297Z,100.00
2023-02-28T06:06:55.893Z,100.00
2023-02-28T06:09:26.292Z,100.00
2023-02-28T06:11:53.878Z,100.00
2023-02-28T06:14:21.928Z,100.00
2023-02-28T06:16:50.321Z,100.00
2023-02-28T06:19:17.915Z,100.00
2023-02-28T06:21:53.611Z,100.00
2023-02-28T06:24:26.480Z,100.00
2023-02-28T06:26:53.972Z,100.00
2023-02-28T06:29:21.476Z,100.00
2023-02-28T06:31:49.178Z,100.00
2023-02-28T06:34:17.886Z,100.00
2023-02-28T06:36:46.376Z,100.00
2023-02-28T06:39:13.759Z,100.00
2023-02-28T06:41:54.230Z,100.00
2023-02-28T06:44:23.027Z,100.00
2023-02-28T06:46:51.866Z,100.00
2023-02-28T06:49:20.555Z,100.00
2023-02-28T06:51:48.963Z,100.00
2023-02-28T06:54:17.405Z,100.00
2023-02-28T06:56:44.909Z,100.00
2023-02-28T06:59:12.373Z,100.00
2023-02-28T07:01:40.321Z,100.00
2023-02-28T07:04:08.133Z,100.00
2023-02-28T07:06:35.400Z,100.00
2023-02-28T07:09:02.810Z,100.00
2023-02-28T07:11:31.594Z,100.00
2023-02-28T07:13:59.414Z,100.00
2023-02-28T07:16:26.922Z,100.00
2023-02-28T07:18:55.094Z,100.00
2023-02-28T07:21:23.422Z,100.00
2023-02-28T07:23:52.630Z,100.00
2023-02-28T07:26:21.195Z,100.00
2023-02-28T07:28:49.968Z,99.12
2023-02-28T07:31:19.479Z,94.66
2023-02-28T07:33:47.162Z,91.09
2023-02-28T07:36:16.798Z,89.36
2023-02-28T07:38:48.269Z,87.04
2023-02-28T07:41:19.325Z,81.90
2023-02-28T07:43:47.038Z,79.37
2023-02-28T07:46:17.614Z,77.26
2023-02-28T07:48:46.198Z,76.19
2023-02-28T07:51:13.747Z,75.83
2023-02-28T07:53:41.209Z,76.18
2023-02-28T07:56:14.312Z,75.52
2023-02-28T07:58:41.605Z,74.22
2023-02-28T08:01:12.042Z,72.92
2023-02-28T08:03:40.214Z,71.53
2023-02-28T08:06:09.923Z,70.86
2023-02-28T08:08:37.066Z,68.21
2023-02-28T08:11:06.725Z,68.75
2023-02-28T08:13:34.169Z,68.19
2023-02-28T08:16:03.621Z,67.39
2023-02-28T08:18:31.251Z,65.80
2023-02-28T08:20:58.779Z,64.84
2023-02-28T08:23:26.909Z,65.13
2023-02-28T08:25:58.338Z,64.78
2023-02-28T08:28:27.291Z,65.10
2023-02-28T08:30:55.819Z,64.12
2023-02-28T08:33:24.801Z,64.06
2023-02-28T08:35:58.242Z,62.65
2023-02-28T08:38:25.824Z,60.38
2023-02-28T08:41:00.183Z,60.95
2023-02-28T08:43:27.894Z,60.67
2023-02-28T08:46:00.613Z,61.64
2023-02-28T08:48:29.827Z,60.80
2023-02-28T08:51:07.553Z,59.30
2023-02-28T08:53:35.959Z,58.91
2023-02-28T08:56:17.876Z,57.99
2023-02-28T08:58:49.063Z,56.86
2023-02-28T09:01:19.680Z,56.98
2023-02-28T09:03:48.070Z,56.32
2023-02-28T09:06:18.022Z,55.05
2023-02-28T09:08:47.530Z,54.29
2023-02-28T09:11:17.181Z,53.41
2023-02-28T09:13:44.678Z,52.45
2023-02-28T09:16:14.817Z,52.85
2023-02-28T09:18:44.787Z,52.17
2023-02-28T09:21:15.490Z,51.50
2023-02-28T09:23:46.983Z,48.62
2023-02-28T09:26:20.662Z,47.01
2023-02-28T09:28:48.262Z,43.46
2023-02-28T09:31:24.394Z,39.21
2023-02-28T09:33:53.685Z,40.25
2023-02-28T09:36:41.801Z,40.98
2023-02-28T09:39:11.576Z,38.66
2023-02-28T09:41:48.679Z,36.96
2023-02-28T09:44:22.334Z,37.40
2023-02-28T09:46:51.164Z,37.69
2023-02-28T09:49:26.704Z,38.49
2023-02-28T09:52:18.421Z,36.77
2023-02-28T09:54:45.580Z,36.50
2023-02-28T09:57:20.621Z,35.95
2023-02-28T10:00:03.981Z,37.05
2023-02-28T10:03:04.884Z,35.81
2023-02-28T10:05:39.966Z,36.64
2023-02-28T10:08:17.934Z,35.42
2023-02-28T10:11:03.061Z,34.08
2023-02-28T10:13:53.858Z,34.10
2023-02-28T10:16:31.589Z,32.58
2023-02-28T10:19:34.309Z,31.38
2023-02-28T10:22:23.807Z,32.20
2023-02-28T10:24:53.796Z,31.00
2023-02-28T10:27:32.766Z,31.28
2023-02-28T10:30:03.308Z,31.08
2023-02-28T10:32:46.674Z,31.31
2023-02-28T10:35:18.817Z,31.65
2023-02-28T10:37:50.118Z,31.36
2023-02-28T10:40:23.302Z,30.70
2023-02-28T10:43:28.042Z,30.73
2023-02-28T10:46:07.195Z,29.81
2023-02-28T10:48:47.265Z,29.26
2023-02-28T10:51:17.262Z,31.11
2023-02-28T10:53:59.583Z,30.31
2023-02-28T10:56:28.947Z,30.25
2023-02-28T10:59:03.444Z,29.23
2023-02-28T11:01:46.462Z,29.09
2023-02-28T11:04:39.195Z,27.89
2023-02-28T11:07:22.963Z,30.12
2023-02-28T11:09:56.774Z,29.09
2023-02-28T11:12:52.154Z,28.73
2023-02-28T11:15:28.121Z,29.55
2023-02-28T11:18:14.883Z,29.91
2023-02-28T11:20:42.452Z,29.47
2023-02-28T11:23:15.064Z,29.18
2023-02-28T11:25:52.373Z,29.26
2023-02-28T11:28:35.302Z,28.78
2023-02-28T11:31:05.084Z,28.28
2023-02-28T11:33:42.923Z,29.04
2023-02-28T11:36:32.173Z,29.57
2023-02-28T11:39:10.307Z,30.39
2023-02-28T11:42:22.090Z,29.64
2023-02-28T11:45:26.676Z,29.40
2023-02-28T11:48:02.157Z,28.22
2023-02-28T11:51:03.043Z,28.60
2023-02-28T11:53:49.202Z,31.42
2023-02-28T11:56:32.717Z,31.31
2023-02-28T11:59:03.091Z,31.29
2023-02-28T12:01:49.105Z,31.04
2023-02-28T12:04:29.574Z,31.22
2023-02-28T12:07:13.002Z,32.73
2023-02-28T12:10:35.904Z,35.74
2023-02-28T12:13:29.284Z,33.58
2023-02-28T12:16:19.719Z,34.97
2023-02-28T12:19:00.355Z,34.34
2023-02-28T12:21:47.502Z,34.91
2023-02-28T12:24:31.799Z,33.73
2023-02-28T12:27:03.660Z,33.73
2023-02-28T12:29:55.539Z,33.28
2023-02-28T12:32:35.152Z,32.33
2023-02-28T12:35:14.748Z,32.28
2023-02-28T12:37:56.452Z,31.59
2023-02-28T12:40:28.634Z,31.24
2023-02-28T12:43:04.933Z,30.44
2023-02-28T12:45:50.034Z,29.81
2023-02-28T12:48:27.410Z,29.84
2023-02-28T12:50:57.614Z,29.54
2023-02-28T12:53:32.479Z,29.23
2023-02-28T12:56:29.395Z,30.67
2023-02-28T12:59:06.382Z,29.98
2023-02-28T13:01:57.879Z,30.36
2023-02-28T13:04:56.983Z,29.96
2023-02-28T13:07:47.809Z,29.38
2023-02-28T13:10:17.889Z,29.27
2023-02-28T13:12:56.106Z,28.45
2023-02-28T13:15:29.341Z,27.98
2023-02-28T13:17:59.387Z,29.28
2023-02-28T13:20:31.066Z,31.13
2023-02-28T13:22:59.261Z,29.25
2023-02-28T13:25:26.654Z,28.81
2023-02-28T13:27:58.226Z,28.95
2023-02-28T13:30:51.812Z,28.51
2023-02-28T13:33:30.804Z,27.80
2023-02-28T13:36:19.210Z,28.34
2023-02-28T13:38:56.807Z,27.56
2023-02-28T13:41:45.217Z,27.20
2023-02-28T13:44:15.290Z,27.64
2023-02-28T13:46:52.004Z,27.10
2023-02-28T13:49:29.274Z,27.64
2023-02-28T13:52:21.056Z,26.91
2023-02-28T13:55:26.643Z,26.85
2023-02-28T13:58:41.158Z,27.37
2023-02-28T14:01:17.747Z,26.70
2023-02-28T14:04:07.025Z,27.35
2023-02-28T14:06:36.780Z,27.23
2023-02-28T14:09:13.500Z,28.36
2023-02-28T14:11:43.588Z,28.95
2023-02-28T14:14:50.160Z,28.49
2023-02-28T14:17:18.789Z,28.99
2023-02-28T14:19:51.094Z,28.09
2023-02-28T14:22:39.732Z,27.46
2023-02-28T14:25:19.600Z,27.41
2023-02-28T14:27:55.226Z,28.17
2023-02-28T14:30:28.520Z,27.90
2023-02-28T14:33:27.783Z,27.16
2023-02-28T14:36:13.960Z,27.13
2023-02-28T14:38:55.013Z,27.64
2023-02-28T14:41:25.597Z,27.85
2023-02-28T14:43:59.657Z,27.96
2023-02-28T14:46:42.004Z,29.16
2023-02-28T14:49:19.348Z,27.76
2023-02-28T14:51:48.797Z,28.44
2023-02-28T14:54:25.186Z,28.24
2023-02-28T14:56:52.924Z,28.00
2023-02-28T14:59:27.947Z,28.08
2023-02-28T15:02:17.717Z,28.99
2023-02-28T15:04:57.517Z,28.53
2023-02-28T15:07:37.951Z,29.18
2023-02-28T15:10:12.246Z,29.13
2023-02-28T15:12:41.529Z,28.99
2023-02-28T15:15:31.924Z,28.84
2023-02-28T15:18:20.117Z,28.89
2023-02-28T15:20:48.167Z,29.35
2023-02-28T15:23:17.173Z,29.79
2023-02-28T15:25:45.129Z,29.60
2023-02-28T15:28:19.757Z,30.23
2023-02-28T15:31:05.048Z,29.98
2023-02-28T15:33:34.737Z,29.26
2023-02-28T15:36:06.110Z,30.19
2023-02-28T15:38:37.361Z,30.47
2023-02-28T15:41:09.362Z,31.35
2023-02-28T15:43:39.409Z,30.63
2023-02-28T15:46:10.594Z,30.75
2023-02-28T15:48:44.012Z,31.11
2023-02-28T15:51:23.902Z,31.96
2023-02-28T15:54:01.482Z,32.17
2023-02-28T15:56:31.816Z,33.61
2023-02-28T15:59:06.366Z,35.49
2023-02-28T16:01:39.154Z,37.56
2023-02-28T16:04:21.086Z,38.69
2023-02-28T16:07:05.788Z,39.47
2023-02-28T16:09:35.261Z,39.99
2023-02-28T16:12:03.918Z,39.60
2023-02-28T16:14:32.348Z,40.19
2023-02-28T16:17:07.170Z,40.91
2023-02-28T16:19:35.896Z,41.43
2023-02-28T16:22:02.877Z,43.04
2023-02-28T16:24:32.326Z,43.87
2023-02-28T16:27:01.592Z,45.11
2023-02-28T16:29:31.167Z,45.35
2023-02-28T16:31:58.622Z,45.92
2023-02-28T16:34:26.036Z,48.80
2023-02-28T16:36:54.155Z,50.29
2023-02-28T16:39:22.277Z,51.35
2023-02-28T16:41:50.646Z,50.77
2023-02-28T16:44:30.426Z,50.98
2023-02-28T16:46:58.176Z,51.90
2023-02-28T16:49:26.797Z,51.28
2023-02-28T16:51:54.722Z,52.15
2023-02-28T16:54:22.628Z,52.52
2023-02-28T16:56:51.052Z,53.75
2023-02-28T16:59:24.798Z,53.54
2023-02-28T17:01:53.667Z,53.25
2023-02-28T17:04:21.700Z,52.98
2023-02-28T17:06:49.743Z,52.74
2023-02-28T17:09:28.280Z,52.83
2023-02-28T17:12:05.812Z,53.73
2023-02-28T17:14:33.204Z,54.40
2023-02-28T17:17:01.196Z,56.42
2023-02-28T17:19:29.749Z,56.73
2023-02-28T17:21:58.778Z,57.28
2023-02-28T17:24:31.110Z,56.71
2023-02-28T17:27:05.925Z,57.56
2023-02-28T17:29:34.339Z,59.08
2023-02-28T17:32:12.242Z,60.36
2023-02-28T17:34:48.601Z,60.31
2023-02-28T17:37:17.393Z,61.49
2023-02-28T17:39:45.164Z,61.49
2023-02-28T17:42:13.572Z,61.82
2023-02-28T17:44:43.284Z,62.84
2023-02-28T17:47:14.576Z,63.91
2023-02-28T17:49:43.276Z,65.67
2023-02-28T17:52:11.330Z,67.34
2023-02-28T17:54:41.840Z,68.45
2023-02-28T17:57:16.551Z,67.76
2023-02-28T17:59:44.885Z,67.63
2023-02-28T18:02:14.542Z,67.77
2023-02-28T18:04:42.601Z,68.20
2023-02-28T18:07:12.949Z,69.10
2023-02-28T18:09:41.112Z,68.29
2023-02-28T18:12:10.211Z,67.03
2023-02-28T18:14:39.432Z,67.14
2023-02-28T18:17:07.855Z,67.31
2023-02-28T18:19:35.943Z,66.26
2023-02-28T18:22:04.083Z,66.16
2023-02-28T18:24:32.211Z,66.56
2023-02-28T18:27:01.399Z,66.86
2023-02-28T18:29:39.610Z,67.82
2023-02-28T18:32:09.226Z,67.20
2023-02-28T18:34:36.867Z,67.00
2023-02-28T18:37:05.260Z,66.58
2023-02-28T18:39:34.233Z,66.61
2023-02-28T18:42:02.913Z,67.09
2023-02-28T18:44:30.548Z,67.92
2023-02-28T18:46:58.430Z,68.60
2023-02-28T18:49:27.679Z,68.82
2023-02-28T18:51:56.061Z,69.51
2023-02-28T18:54:31.871Z,69.84
2023-02-28T18:57:01.231Z,70.22
2023-02-28T18:59:29.083Z,71.02
2023-02-28T19:01:59.354Z,71.34
2023-02-28T19:04:27.795Z,71.85
2023-02-28T19:06:55.565Z,72.34
2023-02-28T19:09:25.021Z,71.97
2023-02-28T19:11:56.190Z,72.05
2023-02-28T19:14:24.188Z,71.92
2023-02-28T19:16:52.569Z,72.26
2023-02-28T19:19:20.738Z,71.97
2023-02-28T19:21:49.278Z,71.58
2023-02-28T19:24:20.409Z,71.12
2023-02-28T19:26:48.726Z,71.87
2023-02-28T19:29:19.727Z,71.75
2023-02-28T19:31:48.698Z,73.60
2023-02-28T19:34:17.513Z,75.13
2023-02-28T19:36:45.766Z,75.42
2023-02-28T19:39:15.524Z,76.39
2023-02-28T19:41:51.639Z,76.87
2023-02-28T19:44:19.544Z,76.68
2023-02-28T19:46:47.427Z,76.59
2023-02-28T19:49:15.498Z,76.71
2023-02-28T19:51:45.386Z,76.81
2023-02-28T19:54:14.485Z,77.04
2023-02-28T19:56:44.013Z,77.44
2023-02-28T19:59:21.151Z,77.65
2023-02-28T20:01:50.574Z,78.78
2023-02-28T20:04:19.143Z,78.94
2023-02-28T20:06:49.779Z,79.26
2023-02-28T20:09:18.284Z,80.18
2023-02-28T20:11:47.378Z,82.25
2023-02-28T20:14:15.423Z,83.18
2023-02-28T20:16:43.352Z,83.07
2023-02-28T20:19:11.743Z,82.61
2023-02-28T20:21:42.612Z,82.22
2023-02-28T20:24:14.872Z,81.81
2023-02-28T20:26:42.891Z,81.78
2023-02-28T20:29:11.231Z,82.12
2023-02-28T20:31:41.785Z,82.40
2023-02-28T20:34:10.140Z,81.88
2023-02-28T20:36:38.714Z,81.83
2023-02-28T20:39:06.995Z,81.69
2023-02-28T20:41:35.497Z,81.65
2023-02-28T20:44:04.754Z,81.33
2023-02-28T20:46:35.300Z,82.15
2023-02-28T20:49:05.084Z,82.98
2023-02-28T20:51:33.824Z,83.24
2023-02-28T20:54:03.037Z,82.93
2023-02-28T20:56:32.252Z,83.22
2023-02-28T20:59:01.185Z,82.86
2023-02-28T21:01:31.196Z,82.90
2023-02-28T21:04:02.160Z,82.95
2023-02-28T21:06:37.001Z,82.77
2023-02-28T21:09:15.863Z,83.79
2023-02-28T21:11:44.509Z,83.82
2023-02-28T21:14:17.823Z,83.39
2023-02-28T21:16:45.447Z,84.02
2023-02-28T21:19:13.633Z,85.40
2023-02-28T21:21:51.552Z,86.51
2023-02-28T21:24:20.459Z,87.08
2023-02-28T21:26:48.787Z,87.50
2023-02-28T21:29:17.068Z,87.81
2023-02-28T21:31:45.636Z,87.91
2023-02-28T21:34:13.949Z,87.58
2023-02-28T21:36:47.658Z,87.62
2023-02-28T21:39:23.674Z,87.74
2023-02-28T21:41:51.025Z,88.47
2023-02-28T21:44:19.051Z,89.01
2023-02-28T21:46:48.287Z,89.66
2023-02-28T21:49:16.517Z,89.68
2023-02-28T21:51:44.930Z,89.92
2023-02-28T21:54:24.996Z,90.05
2023-02-28T21:56:52.756Z,90.30
2023-02-28T21:59:20.591Z,90.64
2023-02-28T22:01:51.187Z,90.35
2023-02-28T22:04:22.776Z,90.13
2023-02-28T22:06:57.636Z,90.50
2023-02-28T22:09:26.243Z,90.89
2023-02-28T22:11:53.766Z,91.59
2023-02-28T22:14:22.655Z,92.15
2023-02-28T22:16:53.782Z,92.77
2023-02-28T22:19:23.694Z,93.15
2023-02-28T22:21:51.867Z,93.51
2023-02-28T22:24:21.031Z,93.75
2023-02-28T22:26:50.308Z,93.85
2023-02-28T22:29:17.878Z,94.15
2023-02-28T22:31:51.369Z,94.50
2023-02-28T22:34:20.149Z,94.64
2023-02-28T22:36:47.786Z,94.62
2023-02-28T22:39:15.304Z,94.93
2023-02-28T22:41:43.923Z,95.32
2023-02-28T22:44:11.635Z,95.93
2023-02-28T22:46:39.341Z,96.71
2023-02-28T22:49:08.573Z,97.03
2023-02-28T22:51:38.309Z,97.35
2023-02-28T22:54:05.672Z,97.57
2023-02-28T22:56:33.607Z,97.30
2023-02-28T22:59:03.830Z,97.28
2023-02-28T23:01:33.030Z,97.08
2023-02-28T23:04:19.991Z,97.35
2023-02-28T23:06:47.557Z,97.74
2023-02-28T23:09:19.027Z,97.72
2023-02-28T23:11:49.897Z,97.95
2023-02-28T23:14:19.902Z,97.78
2023-02-28T23:16:54.507Z,97.45
2023-02-28T23:19:26.673Z,96.71
2023-02-28T23:21:54.462Z,96.06
2023-02-28T23:24:34.026Z,96.11
2023-02-28T23:27:04.774Z,96.85
2023-02-28T23:29:33.815Z,97.54
2023-02-28T23:32:01.610Z,98.22
2023-02-28T23:34:30.786Z,98.24
2023-02-28T23:37:07.592Z,97.99
2023-02-28T23:39:35.143Z,98.08
2023-02-28T23:42:03.697Z,97.81
2023-02-28T23:44:32.052Z,98.20
2023-02-28T23:46:59.533Z,99.25
2023-02-28T23:49:27.302Z,100.00
2023-02-28T23:51:54.844Z,100.00
2023-02-28T23:54:22.667Z,100.00
2023-02-28T23:56:50.875Z,100.00
2023-02-28T23:59:24.089Z,100.00
